createdAt,value
2023-01-27T00:01:50.338Z,7.50
2023-01-27T00:04:22.870Z,8.03
2023-01-27T00:06:53.152Z,6.93
2023-01-27T00:09:23.403Z,7.87
2023-01-27T00:12:06.066Z,7.63
2023-01-27T00:14:36.360Z,6.40
2023-01-27T00:17:06.609Z,8.03
2023-01-27T00:19:39.212Z,8.23
2023-01-27T00:22:22.006Z,8.10
2023-01-27T00:24:52.272Z,8.53
2023-01-27T00:27:22.484Z,7.53
2023-01-27T00:29:53.961Z,7.50
2023-01-27T00:32:36.688Z,9.30
2023-01-27T00:35:09.815Z,8.13
2023-01-27T00:37:40.031Z,7.77
2023-01-27T00:40:11.202Z,8.90
2023-01-27T00:42:41.805Z,8.80
2023-01-27T00:45:24.853Z,9.03
2023-01-27T00:47:55.697Z,7.70
2023-01-27T00:50:28.374Z,7.83
2023-01-27T00:53:02.375Z,9.00
2023-01-27T00:55:32.599Z,6.90
2023-01-27T00:58:02.924Z,8.73
2023-01-27T01:00:33.095Z,9.33
2023-01-27T01:03:03.376Z,11.77
2023-01-27T01:05:35.942Z,8.47
2023-01-27T01:08:06.254Z,9.30
2023-01-27T01:10:36.505Z,10.17
2023-01-27T01:13:07.993Z,9.63
2023-01-27T01:15:38.829Z,9.83
2023-01-27T01:18:11.123Z,8.53
2023-01-27T01:20:46.332Z,9.80
2023-01-27T01:23:17.407Z,8.50
2023-01-27T01:25:55.403Z,9.03
2023-01-27T01:28:26.018Z,9.90
2023-01-27T01:30:56.567Z,9.60
2023-01-27T01:33:27.376Z,10.03
2023-01-27T01:35:59.942Z,11.43
2023-01-27T01:38:30.224Z,11.23
2023-01-27T01:41:00.479Z,12.00
2023-01-27T01:43:30.754Z,11.03
2023-01-27T01:46:01.753Z,10.67
2023-01-27T01:48:37.939Z,10.77
2023-01-27T01:51:16.307Z,12.87
2023-01-27T01:54:03.245Z,13.40
2023-01-27T01:56:37.274Z,14.10
2023-01-27T01:59:12.195Z,15.45
2023-01-27T02:01:42.508Z,16.03
2023-01-27T02:04:18.283Z,11.77
2023-01-27T02:06:57.672Z,12.13
2023-01-27T02:09:28.053Z,10.53
2023-01-27T02:11:58.842Z,11.67
2023-01-27T02:14:29.287Z,11.53
2023-01-27T02:17:00.336Z,12.23
2023-01-27T02:19:37.474Z,12.07
2023-01-27T02:22:16.590Z,11.33
2023-01-27T02:24:50.424Z,12.87
2023-01-27T02:27:23.106Z,11.85
2023-01-27T02:29:53.087Z,11.40
2023-01-27T02:32:27.375Z,10.50
2023-01-27T02:34:59.759Z,11.93
2023-01-27T02:37:30.097Z,10.03
2023-01-27T02:40:02.355Z,10.83
2023-01-27T02:42:35.321Z,10.80
2023-01-27T02:45:05.561Z,11.13
2023-01-27T02:47:35.994Z,9.53
2023-01-27T02:50:06.628Z,8.90
2023-01-27T02:52:36.841Z,8.57
2023-01-27T02:55:07.927Z,9.67
2023-01-27T02:57:40.402Z,8.23
2023-01-27T03:00:27.301Z,8.60
2023-01-27T03:02:58.193Z,8.47
2023-01-27T03:05:28.506Z,7.67
2023-01-27T03:07:58.672Z,8.27
2023-01-27T03:10:28.910Z,7.50
2023-01-27T03:13:03.816Z,9.03
2023-01-27T03:15:46.529Z,7.40
2023-01-27T03:18:17.302Z,7.47
2023-01-27T03:20:49.232Z,7.37
2023-01-27T03:23:21.231Z,7.30
2023-01-27T03:25:54.644Z,7.07
2023-01-27T03:28:29.175Z,6.97
2023-01-27T03:31:05.425Z,7.50
2023-01-27T03:33:47.788Z,7.47
2023-01-27T03:36:40.604Z,7.77
2023-01-27T03:39:23.069Z,6.80
2023-01-27T03:42:05.780Z,7.13
2023-01-27T03:44:50.929Z,8.40
2023-01-27T03:47:21.150Z,8.00
2023-01-27T03:49:51.615Z,7.37
2023-01-27T03:52:21.854Z,8.57
2023-01-27T03:54:52.114Z,7.60
2023-01-27T03:57:22.377Z,8.33
2023-01-27T03:59:55.271Z,6.83
2023-01-27T04:02:37.982Z,7.33
2023-01-27T04:05:21.133Z,7.77
2023-01-27T04:07:51.370Z,9.07
2023-01-27T04:10:21.740Z,8.30
2023-01-27T04:12:49.387Z,7.90
2023-01-27T04:15:22.535Z,8.70
2023-01-27T04:17:52.759Z,7.90
2023-01-27T04:20:23.637Z,8.43
2023-01-27T04:22:53.943Z,8.03
2023-01-27T04:25:24.216Z,8.30
2023-01-27T04:27:55.193Z,9.70
2023-01-27T04:30:28.001Z,8.50
2023-01-27T04:32:58.495Z,8.43
2023-01-27T04:35:38.471Z,6.80
2023-01-27T04:38:09.127Z,7.77
2023-01-27T04:40:39.353Z,7.47
2023-01-27T04:43:09.776Z,7.57
2023-01-27T04:45:42.788Z,6.80
2023-01-27T04:48:13.008Z,7.20
2023-01-27T04:50:43.259Z,6.77
2023-01-27T04:53:13.500Z,7.07
2023-01-27T04:55:44.214Z,7.40
2023-01-27T04:58:16.811Z,8.00
2023-01-27T05:00:49.545Z,8.17
2023-01-27T05:03:19.795Z,7.73
2023-01-27T05:05:50.068Z,7.97
2023-01-27T05:08:20.332Z,8.07
2023-01-27T05:10:52.563Z,7.67
2023-01-27T05:13:22.790Z,7.73
2023-01-27T05:15:55.741Z,7.30
2023-01-27T05:18:25.940Z,6.80
2023-01-27T05:20:56.219Z,7.00
2023-01-27T05:23:38.277Z,6.97
2023-01-27T05:26:14.065Z,8.07
2023-01-27T05:28:44.848Z,7.07
2023-01-27T05:31:18.658Z,7.57
2023-01-27T05:33:49.387Z,8.80
2023-01-27T05:36:20.641Z,7.60
2023-01-27T05:38:51.123Z,7.67
2023-01-27T05:41:22.180Z,7.03
2023-01-27T05:43:55.752Z,7.53
2023-01-27T05:46:30.593Z,8.95
2023-01-27T05:49:05.476Z,7.23
2023-01-27T05:51:36.507Z,7.07
2023-01-27T05:54:07.063Z,7.30
2023-01-27T05:56:37.449Z,7.10
2023-01-27T05:59:07.633Z,7.47
2023-01-27T06:01:40.620Z,7.83
2023-01-27T06:04:11.477Z,6.47
2023-01-27T06:06:41.637Z,6.87
2023-01-27T06:09:13.245Z,7.53
2023-01-27T06:11:43.510Z,8.50
2023-01-27T06:14:13.799Z,7.20
2023-01-27T06:16:47.315Z,8.20
2023-01-27T06:19:17.673Z,8.75
2023-01-27T06:21:47.853Z,7.77
2023-01-27T06:24:18.107Z,7.97
2023-01-27T06:26:48.311Z,6.97
2023-01-27T06:29:18.493Z,9.63
2023-01-27T06:31:51.350Z,8.03
2023-01-27T06:34:21.627Z,8.53
2023-01-27T06:36:56.367Z,9.00
2023-01-27T06:39:26.694Z,7.47
2023-01-27T06:41:57.055Z,9.03
2023-01-27T06:44:27.230Z,8.83
2023-01-27T06:47:00.012Z,7.17
2023-01-27T06:49:30.185Z,8.90
2023-01-27T06:52:00.367Z,8.50
2023-01-27T06:54:30.568Z,7.83
2023-01-27T06:57:00.755Z,7.60
2023-01-27T06:59:30.979Z,8.23
2023-01-27T07:02:03.839Z,7.80
2023-01-27T07:04:34.099Z,7.73
2023-01-27T07:07:04.312Z,7.30
2023-01-27T07:09:50.575Z,8.17
2023-01-27T07:12:22.115Z,8.40
2023-01-27T07:14:52.301Z,8.33
2023-01-27T07:17:25.128Z,8.07
2023-01-27T07:19:55.318Z,7.20
2023-01-27T07:22:25.476Z,8.37
2023-01-27T07:24:55.701Z,7.20
2023-01-27T07:27:26.041Z,8.03
2023-01-27T07:29:56.292Z,8.63
2023-01-27T07:32:29.061Z,7.47
2023-01-27T07:34:59.219Z,7.03
2023-01-27T07:37:29.449Z,9.77
2023-01-27T07:39:59.627Z,7.17
2023-01-27T07:42:29.796Z,8.20
2023-01-27T07:45:00.035Z,7.83
2023-01-27T07:47:32.959Z,9.93
2023-01-27T07:50:03.305Z,7.50
2023-01-27T07:52:33.678Z,6.33
2023-01-27T07:55:03.855Z,7.43
2023-01-27T07:57:34.072Z,8.23
2023-01-27T08:00:05.772Z,7.37
2023-01-27T08:02:45.092Z,8.37
2023-01-27T08:05:15.298Z,7.43
2023-01-27T08:07:45.501Z,8.13
2023-01-27T08:10:15.824Z,8.17
2023-01-27T08:12:46.783Z,7.47
2023-01-27T08:15:19.164Z,8.60
2023-01-27T08:17:58.788Z,7.07
2023-01-27T08:20:29.925Z,6.67
2023-01-27T08:23:00.173Z,7.70
2023-01-27T08:25:30.500Z,8.00
2023-01-27T08:28:00.732Z,7.63
2023-01-27T08:30:31.108Z,7.70
2023-01-27T08:33:03.967Z,6.83
2023-01-27T08:35:34.240Z,8.17
2023-01-27T08:38:04.450Z,7.73
2023-01-27T08:40:34.779Z,8.53
2023-01-27T08:43:05.204Z,8.57
2023-01-27T08:45:35.630Z,6.03
2023-01-27T08:48:09.221Z,8.20
2023-01-27T08:50:39.739Z,7.18
2023-01-27T08:53:09.989Z,8.03
2023-01-27T08:55:40.165Z,6.47
2023-01-27T08:58:10.393Z,8.07
2023-01-27T09:00:40.755Z,6.90
2023-01-27T09:03:14.005Z,6.50
2023-01-27T09:05:44.639Z,7.10
2023-01-27T09:08:15.954Z,7.33
2023-01-27T09:10:46.210Z,8.77
2023-01-27T09:13:17.189Z,7.03
2023-01-27T09:15:47.636Z,8.33
2023-01-27T09:18:20.428Z,7.40
2023-01-27T09:20:50.685Z,5.40
2023-01-27T09:23:20.921Z,7.50
2023-01-27T09:25:51.147Z,6.83
2023-01-27T09:28:21.372Z,7.30
2023-01-27T09:30:51.620Z,6.60
2023-01-27T09:33:25.913Z,6.80
2023-01-27T09:36:00.123Z,8.27
2023-01-27T09:38:33.715Z,6.65
2023-01-27T09:41:27.160Z,7.30
2023-01-27T09:44:18.401Z,7.50
2023-01-27T09:47:11.800Z,7.80
2023-01-27T09:50:00.614Z,6.00
2023-01-27T09:52:48.306Z,5.97
2023-01-27T09:55:24.022Z,8.10
2023-01-27T09:58:04.135Z,6.67
2023-01-27T10:00:46.960Z,7.77
2023-01-27T10:03:48.449Z,6.53
2023-01-27T10:06:48.822Z,6.00
2023-01-27T10:09:39.079Z,6.90
2023-01-27T10:12:24.736Z,6.47
2023-01-27T10:15:09.020Z,5.53
2023-01-27T10:17:49.509Z,6.50
2023-01-27T10:20:30.388Z,7.23
2023-01-27T10:23:14.659Z,6.37
2023-01-27T10:25:57.674Z,6.30
2023-01-27T10:28:32.558Z,7.10
2023-01-27T10:31:04.501Z,7.37
2023-01-27T10:33:45.333Z,4.67
2023-01-27T10:36:24.523Z,6.43
2023-01-27T10:39:10.111Z,5.77
2023-01-27T10:41:48.905Z,7.53
2023-01-27T10:44:41.161Z,6.53
2023-01-27T10:47:18.689Z,4.73
2023-01-27T10:49:52.977Z,6.60
2023-01-27T10:52:25.776Z,5.22
2023-01-27T10:55:04.142Z,6.07
2023-01-27T10:57:39.598Z,5.67
2023-01-27T11:03:13.370Z,5.57
2023-01-27T11:05:46.919Z,5.60
2023-01-27T11:08:21.411Z,5.88
2023-01-27T11:11:10.236Z,5.70
2023-01-27T11:13:41.458Z,5.23
2023-01-27T11:16:18.412Z,5.47
2023-01-27T11:18:52.552Z,4.67
2023-01-27T11:21:25.152Z,5.70
2023-01-27T11:24:00.510Z,4.47
2023-01-27T11:26:39.867Z,5.13
2023-01-27T11:29:22.567Z,3.80
2023-01-27T11:31:59.771Z,4.30
2023-01-27T11:34:35.738Z,4.90
2023-01-27T11:37:19.056Z,4.87
2023-01-27T11:39:49.342Z,5.00
2023-01-27T11:42:22.957Z,5.40
2023-01-27T11:44:55.623Z,5.80
2023-01-27T11:47:27.652Z,5.13
2023-01-27T11:49:59.895Z,4.90
2023-01-27T11:52:31.239Z,4.63
2023-01-27T11:55:09.127Z,5.20
2023-01-27T11:57:45.787Z,5.13
2023-01-27T12:00:24.880Z,3.80
2023-01-27T12:03:02.361Z,5.03
2023-01-27T12:05:36.876Z,5.33
2023-01-27T12:10:42.426Z,5.57
2023-01-27T12:13:20.345Z,4.63
2023-01-27T12:15:54.187Z,4.97
2023-01-27T12:18:25.225Z,5.45
2023-01-27T12:21:02.761Z,5.07
2023-01-27T12:23:37.040Z,4.67
2023-01-27T12:26:09.777Z,5.35
2023-01-27T12:28:50.282Z,4.80
2023-01-27T12:31:25.434Z,5.23
2023-01-27T12:34:03.322Z,5.37
2023-01-27T12:36:41.535Z,5.13
2023-01-27T12:39:31.530Z,4.80
2023-01-27T12:42:01.785Z,4.27
2023-01-27T12:44:44.214Z,4.63
2023-01-27T12:47:26.431Z,4.83
2023-01-27T12:50:23.170Z,4.47
2023-01-27T12:53:05.922Z,4.40
2023-01-27T12:55:37.897Z,4.90
2023-01-27T12:58:08.388Z,4.53
2023-01-27T13:00:48.244Z,5.33
2023-01-27T13:03:18.681Z,4.77
2023-01-27T13:05:48.915Z,4.53
2023-01-27T13:08:21.399Z,4.87
2023-01-27T13:10:57.455Z,4.87
2023-01-27T13:13:28.989Z,5.60
2023-01-27T13:16:08.524Z,4.67
2023-01-27T13:18:42.517Z,4.63
2023-01-27T13:21:20.056Z,4.47
2023-01-27T13:23:53.269Z,4.80
2023-01-27T13:26:27.279Z,5.53
2023-01-27T13:29:01.073Z,4.15
2023-01-27T13:31:46.900Z,4.18
2023-01-27T13:34:29.761Z,4.90
2023-01-27T13:37:06.415Z,4.63
2023-01-27T13:39:52.782Z,4.70
2023-01-27T13:42:28.952Z,3.90
2023-01-27T13:45:03.965Z,4.67
2023-01-27T13:47:42.646Z,4.20
2023-01-27T13:50:25.361Z,3.87
2023-01-27T13:52:58.081Z,3.80
2023-01-27T13:55:44.143Z,4.90
2023-01-27T13:58:21.384Z,4.10
2023-01-27T14:01:00.163Z,4.30
2023-01-27T14:03:53.602Z,3.90
2023-01-27T14:06:36.247Z,5.37
2023-01-27T14:09:20.665Z,5.43
2023-01-27T14:11:56.240Z,3.45
2023-01-27T14:14:56.023Z,4.73
2023-01-27T14:17:41.659Z,3.83
2023-01-27T14:20:34.018Z,3.80
2023-01-27T14:23:23.270Z,3.90
2023-01-27T14:26:03.479Z,4.37
2023-01-27T14:28:45.238Z,3.30
2023-01-27T14:31:19.736Z,3.33
2023-01-27T14:34:00.492Z,4.23
2023-01-27T14:36:38.087Z,4.60
2023-01-27T14:39:19.794Z,4.37
2023-01-27T14:41:57.301Z,4.10
2023-01-27T14:44:44.000Z,4.17
2023-01-27T14:47:25.403Z,4.93
2023-01-27T14:50:09.523Z,4.67
2023-01-27T14:52:51.550Z,3.92
2023-01-27T14:55:37.710Z,4.10
2023-01-27T14:58:28.235Z,6.20
2023-01-27T15:01:08.346Z,4.77
2023-01-27T15:04:08.157Z,5.47
2023-01-27T15:06:47.341Z,7.90
2023-01-27T15:09:33.250Z,6.10
2023-01-27T15:12:28.011Z,5.17
2023-01-27T15:15:24.825Z,12.02
2023-01-27T15:18:09.182Z,6.27
2023-01-27T15:20:53.232Z,5.60
2023-01-27T15:23:36.290Z,4.75
2023-01-27T15:26:11.495Z,4.10
2023-01-27T15:28:44.321Z,5.03
2023-01-27T15:31:26.519Z,4.93
2023-01-27T15:33:58.998Z,5.03
2023-01-27T15:36:40.453Z,4.67
2023-01-27T15:39:35.560Z,4.37
2023-01-27T15:42:15.991Z,4.67
2023-01-27T15:45:01.933Z,4.33
2023-01-27T15:47:35.698Z,5.40
2023-01-27T15:50:11.628Z,4.33
2023-01-27T15:52:44.652Z,4.97
2023-01-27T15:55:26.808Z,5.20
2023-01-27T15:58:06.657Z,5.17
2023-01-27T16:00:38.722Z,6.03
2023-01-27T16:03:10.437Z,5.77
2023-01-27T16:05:41.496Z,5.73
2023-01-27T16:08:14.452Z,5.40
2023-01-27T16:10:45.434Z,6.63
2023-01-27T16:13:27.798Z,6.20
2023-01-27T16:16:13.101Z,5.73
2023-01-27T16:18:47.632Z,6.93
2023-01-27T16:21:38.661Z,7.30
2023-01-27T16:24:13.431Z,7.13
2023-01-27T16:26:45.680Z,6.50
2023-01-27T16:29:31.200Z,6.27
2023-01-27T16:32:06.357Z,5.57
2023-01-27T16:34:46.908Z,7.03
2023-01-27T16:37:28.596Z,6.37
2023-01-27T16:40:02.698Z,6.27
2023-01-27T16:42:37.026Z,9.10
2023-01-27T16:45:21.407Z,5.82
2023-01-27T16:47:53.565Z,6.97
2023-01-27T16:50:38.935Z,7.27
2023-01-27T16:53:10.360Z,7.73
2023-01-27T16:55:40.589Z,6.83
2023-01-27T16:58:21.061Z,7.47
2023-01-27T17:00:54.044Z,8.30
2023-01-27T17:03:26.397Z,6.20
2023-01-27T17:06:05.072Z,6.50
2023-01-27T17:08:39.584Z,7.30
2023-01-27T17:11:10.902Z,7.97
2023-01-27T17:13:48.502Z,7.37
2023-01-27T17:16:27.399Z,7.80
2023-01-27T17:18:59.239Z,7.10
2023-01-27T17:21:34.351Z,8.17
2023-01-27T17:24:06.248Z,7.37
2023-01-27T17:26:37.299Z,6.00
2023-01-27T17:29:07.657Z,7.30
2023-01-27T17:31:41.187Z,8.30
2023-01-27T17:34:18.149Z,5.90
2023-01-27T17:37:03.403Z,7.63
2023-01-27T17:39:33.847Z,7.83
2023-01-27T17:42:05.136Z,6.00
2023-01-27T17:44:35.742Z,6.93
2023-01-27T17:47:09.336Z,7.33
2023-01-27T17:49:41.394Z,7.20
2023-01-27T17:52:12.956Z,7.77
2023-01-27T17:54:46.737Z,6.87
2023-01-27T17:57:21.292Z,7.60
2023-01-27T18:00:01.296Z,8.10
2023-01-27T18:02:36.874Z,7.83
2023-01-27T18:05:13.102Z,6.07
2023-01-27T18:07:43.509Z,6.67
2023-01-27T18:10:25.554Z,7.00
2023-01-27T18:12:56.115Z,7.63
2023-01-27T18:15:36.538Z,7.40
2023-01-27T18:18:21.647Z,8.77
2023-01-27T18:20:53.891Z,8.27
2023-01-27T18:23:27.501Z,6.40
2023-01-27T18:26:05.301Z,6.30
2023-01-27T18:28:37.876Z,6.67
2023-01-27T18:31:08.459Z,7.00
2023-01-27T18:33:43.911Z,6.63
2023-01-27T18:36:23.921Z,6.33
2023-01-27T18:38:54.635Z,5.70
2023-01-27T18:41:29.398Z,5.47
2023-01-27T18:43:59.968Z,5.67
2023-01-27T18:46:30.553Z,5.17
2023-01-27T18:49:03.459Z,5.20
2023-01-27T18:51:34.062Z,4.90
2023-01-27T18:54:04.435Z,4.93
2023-01-27T18:56:34.598Z,4.57
2023-01-27T18:59:04.803Z,4.73
2023-01-27T19:01:36.139Z,5.30
2023-01-27T19:04:09.354Z,5.40
2023-01-27T19:06:39.551Z,4.03
2023-01-27T19:09:10.431Z,3.87
2023-01-27T19:11:40.601Z,4.50
2023-01-27T19:14:10.745Z,4.80
2023-01-27T19:16:41.035Z,4.60
2023-01-27T19:19:15.897Z,4.07
2023-01-27T19:21:46.138Z,4.20
2023-01-27T19:24:16.620Z,4.83
2023-01-27T19:26:47.707Z,4.07
2023-01-27T19:29:17.939Z,4.70
2023-01-27T19:31:48.144Z,3.67
2023-01-27T19:34:20.951Z,4.80
2023-01-27T19:36:51.174Z,4.20
2023-01-27T19:39:22.639Z,4.57
2023-01-27T19:41:55.041Z,5.43
2023-01-27T19:44:25.511Z,4.43
2023-01-27T19:46:55.717Z,4.40
2023-01-27T19:49:28.465Z,3.50
2023-01-27T19:51:58.991Z,3.80
2023-01-27T19:54:30.244Z,3.70
2023-01-27T19:57:00.453Z,4.43
2023-01-27T19:59:31.108Z,4.80
2023-01-27T20:02:01.375Z,4.20
2023-01-27T20:04:34.379Z,4.23
2023-01-27T20:07:04.905Z,3.83
2023-01-27T20:09:35.353Z,5.00
2023-01-27T20:12:05.777Z,4.27
2023-01-27T20:14:35.955Z,8.40
2023-01-27T20:17:06.140Z,12.97
2023-01-27T20:19:39.123Z,9.53
2023-01-27T20:22:09.474Z,4.27
2023-01-27T20:24:39.858Z,5.23
2023-01-27T20:27:10.091Z,4.40
2023-01-27T20:29:40.721Z,4.87
2023-01-27T20:32:10.975Z,5.57
2023-01-27T20:34:43.964Z,4.97
2023-01-27T20:37:14.712Z,4.27
2023-01-27T20:39:44.872Z,3.87
2023-01-27T20:42:15.029Z,4.33
2023-01-27T20:44:45.290Z,4.93
2023-01-27T20:47:15.975Z,4.93
2023-01-27T20:49:49.510Z,4.50
2023-01-27T20:52:19.649Z,4.93
2023-01-27T20:54:49.871Z,4.63
2023-01-27T20:57:22.012Z,3.40
2023-01-27T20:59:52.506Z,4.03
2023-01-27T21:02:22.951Z,3.73
2023-01-27T21:04:55.796Z,3.93
2023-01-27T21:07:26.709Z,4.37
2023-01-27T21:09:56.936Z,5.23
2023-01-27T21:12:27.374Z,8.40
2023-01-27T21:14:57.691Z,5.43
2023-01-27T21:17:27.941Z,3.70
2023-01-27T21:20:00.894Z,3.43
2023-01-27T21:22:31.207Z,3.90
2023-01-27T21:25:01.601Z,2.83
2023-01-27T21:27:31.828Z,3.00
2023-01-27T21:30:02.034Z,3.00
2023-01-27T21:32:32.340Z,3.10
2023-01-27T21:35:05.240Z,3.30
2023-01-27T21:37:36.169Z,3.20
2023-01-27T21:40:06.820Z,4.07
2023-01-27T21:42:49.471Z,2.80
2023-01-27T21:45:20.830Z,3.43
2023-01-27T21:47:51.149Z,3.80
2023-01-27T21:50:23.768Z,4.50
2023-01-27T21:52:54.221Z,3.80
2023-01-27T21:55:26.059Z,3.70
2023-01-27T21:57:57.773Z,4.13
2023-01-27T22:00:30.287Z,3.40
2023-01-27T22:03:02.920Z,3.60
2023-01-27T22:05:39.253Z,3.60
2023-01-27T22:08:09.544Z,4.00
2023-01-27T22:10:48.811Z,3.67
2023-01-27T22:13:18.987Z,3.80
2023-01-27T22:15:52.460Z,3.60
2023-01-27T22:18:22.704Z,3.60
2023-01-27T22:20:55.285Z,3.90
2023-01-27T22:23:25.619Z,3.37
2023-01-27T22:25:56.535Z,2.90
2023-01-27T22:28:26.940Z,3.73
2023-01-27T22:30:57.479Z,3.60
2023-01-27T22:33:27.674Z,3.83
2023-01-27T22:36:08.144Z,4.27
2023-01-27T22:38:40.628Z,3.77
2023-01-27T22:41:10.841Z,3.77
2023-01-27T22:43:41.161Z,3.83
2023-01-27T22:46:11.396Z,3.93
2023-01-27T22:48:41.637Z,4.00
2023-01-27T22:51:14.206Z,3.63
2023-01-27T22:53:44.471Z,3.63
2023-01-27T22:56:14.772Z,5.10
2023-01-27T22:58:44.975Z,4.00
2023-01-27T23:01:15.234Z,4.33
2023-01-27T23:03:45.471Z,4.27
2023-01-27T23:06:18.067Z,4.53
2023-01-27T23:08:48.353Z,4.13
2023-01-27T23:11:18.550Z,4.20
2023-01-27T23:13:48.686Z,4.40
2023-01-27T23:16:18.879Z,4.77
2023-01-27T23:18:49.044Z,5.07
2023-01-27T23:21:21.561Z,4.67
2023-01-27T23:23:53.491Z,4.17
2023-01-27T23:26:23.718Z,4.77
2023-01-27T23:28:53.929Z,4.43
2023-01-27T23:31:24.477Z,4.47
2023-01-27T23:33:54.812Z,4.27
2023-01-27T23:36:27.321Z,5.23
2023-01-27T23:38:57.495Z,4.47
2023-01-27T23:41:27.706Z,4.67
2023-01-27T23:43:59.143Z,5.33
2023-01-27T23:46:30.345Z,3.70
2023-01-27T23:49:00.626Z,4.70
2023-01-27T23:51:33.133Z,4.27
2023-01-27T23:54:03.340Z,4.77
2023-01-27T23:56:33.625Z,4.23
2023-01-27T23:59:03.805Z,4.13
